This is the latest recevied weather packets stored in our database for station/object OE6ACM-10. If no packets are shown the sender has not sent any weather packets the latest 10 day(s).
| Time | Temp. | Humidity | Pressure | Rain* | Wind** | Luminosity | Snow |
|---|---|---|---|---|---|---|---|
| 1787498931 | 31.67° C | 100% | 931 hPa | - | - | - | - |
| 1787498631 | 32.78° C | 100% | 931 hPa | - | - | - | - |
| 1787498331 | 33.89° C | 100% | 930.9 hPa | - | - | - | - |
| 1787498031 | 35° C | 100% | 930.8 hPa | - | - | - | - |
| 1787497731 | 36.11° C | 89% | 930.9 hPa | - | - | - | - |
| 1787497431 | 39.44° C | 79% | 930.9 hPa | - | - | - | - |
| 1787497131 | 37.22° C | 96% | 931 hPa | - | - | - | - |
| 1787496831 | 35° C | 100% | 931 hPa | - | - | - | - |
| 1787496531 | 38.33° C | 80% | 931 hPa | - | - | - | - |
| 1787496231 | 38.33° C | 82% | 930.9 hPa | - | - | - | - |
| 1787495931 | 36.67° C | 93% | 930.9 hPa | - | - | - | - |
| 1787495631 | 35° C | 100% | 930.9 hPa | - | - | - | - |
| 1787495331 | 35° C | 100% | 930.9 hPa | - | - | - | - |
| 1787495031 | 35.56° C | 100% | 930.9 hPa | - | - | - | - |
| 1787494731 | 33.89° C | 100% | 931 hPa | - | - | - | - |
| 1787494431 | 33.89° C | 100% | 931 hPa | - | - | - | - |
| 1787494131 | 33.89° C | 100% | 931.1 hPa | - | - | - | - |
| 1787493831 | 36.11° C | 91% | 931 hPa | - | - | - | - |
| 1787493531 | 37.78° C | 83% | 931.1 hPa | - | - | - | - |
| 1787493231 | 37.78° C | 100% | 931 hPa | - | - | - | - |
| 1787492931 | 37.22° C | 100% | 931.1 hPa | - | - | - | - |
| 1787492631 | 35.56° C | 100% | 931 hPa | - | - | - | - |
| 1787492331 | 33.89° C | 100% | 931.1 hPa | - | - | - | - |
| 1787492031 | 33.33° C | 100% | 931 hPa | - | - | - | - |
| 1787491731 | 31.11° C | 100% | 931.1 hPa | - | - | - | - |
* Rain since midnight (hover to see other rain measurements)
** Current wind speed in m/s (hover to see current wind gust speed)